createdAt,value
2023-05-08T00:04:30.109Z,22.50
2023-05-08T00:09:29.986Z,27.20
2023-05-08T00:14:29.987Z,25.20
2023-05-08T00:19:29.962Z,56.90
2023-05-08T00:24:29.853Z,18.60
2023-05-08T00:29:29.796Z,20.70
2023-05-08T00:34:29.719Z,47.40
2023-05-08T00:39:29.660Z,26.80
2023-05-08T00:44:29.629Z,24.60
2023-05-08T00:49:30.626Z,30.40
2023-05-08T00:54:29.546Z,65.70
2023-05-08T00:59:29.552Z,84.40
2023-05-08T01:04:29.532Z,148.90
2023-05-08T01:09:29.334Z,137.30
2023-05-08T01:14:29.334Z,26.00
2023-05-08T01:19:29.248Z,27.70
2023-05-08T01:24:29.258Z,45.10
2023-05-08T01:29:31.144Z,20.60
2023-05-08T01:34:29.162Z,21.30
2023-05-08T01:39:29.074Z,111.90
2023-05-08T01:44:37.891Z,48.90
2023-05-08T01:49:28.938Z,66.60
2023-05-08T01:54:28.860Z,72.30
2023-05-08T01:59:29.002Z,63.50
2023-05-08T02:04:28.895Z,51.70
2023-05-08T02:09:28.792Z,28.20
2023-05-08T02:14:28.690Z,62.40
2023-05-08T02:19:28.632Z,24.30
2023-05-08T02:24:29.616Z,18.70
2023-05-08T02:29:28.484Z,20.10
2023-05-08T02:34:28.427Z,16.60
2023-05-08T02:39:28.408Z,15.20
2023-05-08T02:44:28.339Z,18.60
2023-05-08T02:49:28.302Z,24.00
2023-05-08T02:54:28.231Z,25.50
2023-05-08T02:59:28.175Z,20.80
2023-05-08T03:04:28.162Z,19.50
2023-05-08T03:09:28.260Z,19.40
2023-05-08T03:14:30.122Z,17.90
2023-05-08T03:19:27.998Z,20.70
2023-05-08T03:24:27.922Z,20.50
2023-05-08T03:29:28.911Z,15.70
2023-05-08T03:34:27.821Z,24.30
2023-05-08T03:39:27.725Z,20.70
2023-05-08T03:44:27.660Z,17.40
2023-05-08T03:49:27.603Z,22.30
2023-05-08T03:54:27.561Z,28.40
2023-05-08T03:59:27.670Z,24.30
2023-05-08T04:04:27.492Z,20.20
2023-05-08T04:09:28.450Z,14.20
2023-05-08T04:14:27.523Z,15.50
2023-05-08T04:19:27.362Z,25.60
2023-05-08T04:24:27.246Z,17.00
2023-05-08T04:29:28.221Z,21.90
2023-05-08T04:34:27.188Z,21.90
2023-05-08T04:39:27.151Z,16.20
2023-05-08T04:44:27.140Z,28.00
2023-05-08T04:49:27.012Z,19.00
2023-05-08T04:54:26.944Z,17.80
2023-05-08T04:59:26.914Z,16.70
2023-05-08T05:04:26.848Z,22.90
2023-05-08T05:09:26.783Z,19.60
2023-05-08T05:14:26.719Z,16.10
2023-05-08T05:19:26.740Z,23.70
2023-05-08T05:24:26.871Z,18.00
2023-05-08T05:29:27.696Z,16.60
2023-05-08T05:34:26.677Z,18.70
2023-05-08T05:39:26.598Z,16.40
2023-05-08T05:44:28.458Z,18.20
2023-05-08T05:49:26.469Z,15.80
2023-05-08T05:54:26.387Z,15.90
2023-05-08T05:59:26.375Z,15.70
2023-05-08T06:04:27.285Z,18.20
2023-05-08T06:09:26.172Z,18.10
2023-05-08T06:14:26.081Z,19.00
2023-05-08T06:19:26.021Z,15.50
2023-05-08T06:24:25.956Z,24.10
2023-05-08T06:29:25.971Z,14.80
2023-05-08T06:34:25.923Z,15.20
2023-05-08T06:39:25.815Z,12.10
2023-05-08T06:44:25.784Z,13.40
2023-05-08T06:49:25.714Z,13.00
2023-05-08T06:54:25.680Z,13.50
2023-05-08T06:59:25.610Z,16.20
2023-05-08T07:04:25.561Z,15.30
2023-05-08T07:09:25.484Z,11.00
2023-05-08T07:14:25.419Z,13.40
2023-05-08T07:19:25.356Z,11.90
2023-05-08T07:24:25.281Z,11.00
2023-05-08T07:29:25.277Z,12.10
2023-05-08T07:34:25.300Z,12.50
2023-05-08T07:39:25.262Z,12.90
2023-05-08T07:44:40.566Z,11.60
2023-05-08T07:49:26.124Z,14.70
2023-05-08T07:54:25.064Z,14.40
2023-05-08T07:59:25.094Z,14.00
2023-05-08T08:04:25.023Z,13.30
2023-05-08T08:09:24.858Z,9.80
2023-05-08T08:14:24.805Z,12.90
2023-05-08T08:19:24.746Z,11.70
2023-05-08T08:24:24.687Z,12.90
2023-05-08T08:29:24.692Z,12.20
2023-05-08T08:34:24.564Z,12.10
2023-05-08T08:39:24.484Z,8.40
2023-05-08T08:44:24.473Z,8.00
2023-05-08T08:49:24.405Z,10.40
2023-05-08T08:54:24.328Z,11.40
2023-05-08T08:59:24.310Z,13.70
2023-05-08T09:04:24.413Z,13.00
2023-05-08T09:09:24.173Z,8.40
2023-05-08T09:14:24.180Z,8.40
2023-05-08T09:19:27.091Z,6.90
2023-05-08T09:24:24.013Z,8.10
2023-05-08T09:29:23.994Z,7.00
2023-05-08T09:34:23.975Z,6.60
2023-05-08T09:39:24.004Z,7.20
2023-05-08T09:44:23.829Z,13.10
2023-05-08T09:49:23.851Z,7.90
2023-05-08T09:54:23.795Z,8.50
2023-05-08T09:59:23.698Z,6.50
2023-05-08T10:04:23.653Z,8.70
2023-05-08T10:09:23.686Z,6.00
2023-05-08T10:14:23.625Z,7.60
2023-05-08T10:19:23.525Z,8.40
2023-05-08T10:24:23.411Z,7.10
2023-05-08T10:29:23.349Z,6.30
2023-05-08T10:34:23.283Z,6.60
2023-05-08T10:39:23.238Z,6.40
2023-05-08T10:44:23.210Z,5.50
2023-05-08T10:49:23.135Z,7.50
2023-05-08T10:54:23.115Z,5.90
2023-05-08T10:59:23.042Z,4.50
2023-05-08T11:04:23.114Z,6.90
2023-05-08T11:09:22.952Z,5.50
2023-05-08T11:14:23.955Z,8.30
2023-05-08T11:19:22.954Z,7.40
2023-05-08T11:24:22.865Z,8.60
2023-05-08T11:29:22.814Z,10.10
2023-05-08T11:34:22.715Z,6.90
2023-05-08T11:39:22.623Z,6.20
2023-05-08T11:44:22.573Z,6.10
2023-05-08T11:49:25.979Z,4.10
2023-05-08T11:54:23.441Z,3.90
2023-05-08T11:59:22.444Z,5.20
2023-05-08T12:04:22.549Z,4.50
2023-05-08T12:09:22.348Z,5.00
2023-05-08T12:14:22.429Z,4.90
2023-05-08T12:19:23.228Z,5.70
2023-05-08T12:24:22.232Z,6.90
2023-05-08T12:29:22.934Z,4.80
2023-05-08T12:34:22.110Z,5.30
2023-05-08T12:39:22.118Z,5.80
2023-05-08T12:44:22.038Z,3.50
2023-05-08T12:49:21.905Z,5.10
2023-05-08T12:54:21.881Z,4.30
2023-05-08T12:59:21.827Z,4.30
2023-05-08T13:04:21.868Z,5.50
2023-05-08T13:09:21.724Z,6.30
2023-05-08T13:14:21.647Z,8.40
2023-05-08T13:19:22.763Z,6.70
2023-05-08T13:24:21.573Z,6.20
2023-05-08T13:29:21.542Z,6.30
2023-05-08T13:34:21.497Z,6.40
2023-05-08T13:39:22.488Z,8.00
2023-05-08T13:44:30.758Z,6.20
2023-05-08T13:49:21.410Z,6.20
2023-05-08T13:54:21.286Z,5.80
2023-05-08T13:59:21.195Z,5.60
2023-05-08T14:04:21.126Z,6.00
2023-05-08T14:09:21.104Z,4.60
2023-05-08T14:14:21.072Z,6.00
2023-05-08T14:19:21.008Z,5.20
2023-05-08T14:24:20.962Z,5.80
2023-05-08T14:29:20.865Z,5.10
2023-05-08T14:34:20.849Z,6.20
2023-05-08T14:39:20.774Z,7.90
2023-05-08T14:44:20.762Z,7.40
2023-05-08T14:49:32.835Z,7.00
2023-05-08T14:54:21.762Z,10.10
2023-05-08T14:59:20.566Z,7.00
2023-05-08T15:04:20.744Z,7.10
2023-05-08T15:09:20.508Z,5.80
2023-05-08T15:14:20.549Z,7.40
2023-05-08T15:19:20.454Z,5.00
2023-05-08T15:24:20.303Z,5.60
2023-05-08T15:29:20.329Z,5.50
2023-05-08T15:34:20.234Z,6.90
2023-05-08T15:39:20.162Z,7.70
2023-05-08T15:44:20.106Z,9.80
2023-05-08T15:49:20.017Z,6.00
2023-05-08T15:54:20.112Z,11.60
2023-05-08T15:59:20.015Z,8.10
2023-05-08T16:04:20.991Z,6.80
2023-05-08T16:09:19.911Z,8.10
2023-05-08T16:14:19.739Z,7.60
2023-05-08T16:19:19.694Z,8.30
2023-05-08T16:24:19.665Z,11.80
2023-05-08T16:29:19.620Z,10.70
2023-05-08T16:34:19.574Z,8.10
2023-05-08T16:39:19.493Z,10.30
2023-05-08T16:44:19.461Z,8.00
2023-05-08T16:49:19.500Z,8.00
2023-05-08T16:54:19.332Z,9.70
2023-05-08T16:59:19.317Z,11.10
2023-05-08T17:04:19.277Z,10.50
2023-05-08T17:09:19.223Z,8.60
2023-05-08T17:14:19.145Z,10.80
2023-05-08T17:19:19.065Z,12.40
2023-05-08T17:24:19.032Z,10.40
2023-05-08T17:29:18.999Z,12.00
2023-05-08T17:34:19.003Z,13.10
2023-05-08T17:39:18.845Z,14.80
2023-05-08T17:44:18.848Z,9.90
2023-05-08T17:49:19.534Z,8.50
2023-05-08T17:54:18.700Z,8.30
2023-05-08T17:59:18.683Z,8.10
2023-05-08T18:04:18.580Z,12.20
2023-05-08T18:09:18.556Z,12.10
2023-05-08T18:14:18.512Z,10.60
2023-05-08T18:19:18.437Z,11.60
2023-05-08T18:24:18.395Z,10.00
2023-05-08T18:29:18.321Z,14.90
2023-05-08T18:34:18.269Z,9.80
2023-05-08T18:39:18.258Z,12.50
2023-05-08T18:44:18.135Z,10.20
2023-05-08T18:49:18.089Z,11.30
2023-05-08T18:54:18.043Z,8.40
2023-05-08T18:59:18.003Z,7.00
2023-05-08T19:04:17.948Z,8.80
2023-05-08T19:09:17.910Z,7.70
2023-05-08T19:14:17.856Z,8.70
2023-05-08T19:19:17.781Z,9.00
2023-05-08T19:24:17.761Z,5.90
2023-05-08T19:29:17.679Z,5.90
2023-05-08T19:34:17.650Z,6.10
2023-05-08T19:39:17.536Z,8.40
2023-05-08T19:44:17.519Z,9.20
2023-05-08T19:49:17.475Z,5.20
2023-05-08T19:54:17.456Z,7.30
2023-05-08T19:59:17.339Z,7.20
2023-05-08T20:04:17.290Z,6.50
2023-05-08T20:09:17.250Z,8.10
2023-05-08T20:14:17.203Z,7.20
2023-05-08T20:19:17.128Z,10.10
2023-05-08T20:24:17.261Z,10.60
2023-05-08T20:29:16.977Z,9.20
2023-05-08T20:34:16.982Z,10.40
2023-05-08T20:39:16.908Z,11.10
2023-05-08T20:44:16.997Z,9.90
2023-05-08T20:49:16.808Z,9.40
2023-05-08T20:54:16.853Z,9.30
2023-05-08T20:59:26.618Z,10.00
2023-05-08T21:04:16.790Z,12.10
2023-05-08T21:09:16.562Z,12.10
2023-05-08T21:14:16.561Z,10.00
2023-05-08T21:19:16.416Z,9.30
2023-05-08T21:24:16.439Z,9.60
2023-05-08T21:29:16.342Z,11.20
2023-05-08T21:34:16.396Z,13.90
2023-05-08T21:39:16.240Z,10.20
2023-05-08T21:44:18.282Z,9.70
2023-05-08T21:49:16.214Z,10.50
2023-05-08T21:54:16.145Z,9.60
2023-05-08T21:59:16.049Z,11.40
2023-05-08T22:04:15.957Z,9.90
2023-05-08T22:09:15.880Z,8.60
2023-05-08T22:14:15.878Z,12.00
2023-05-08T22:19:15.804Z,13.20
2023-05-08T22:24:15.732Z,12.40
2023-05-08T22:29:15.707Z,14.00
2023-05-08T22:34:16.768Z,12.60
2023-05-08T22:39:15.583Z,13.90
2023-05-08T22:44:15.555Z,13.50
2023-05-08T22:49:15.547Z,11.70
2023-05-08T22:54:15.481Z,11.40
2023-05-08T22:59:15.404Z,13.00
2023-05-08T23:04:15.327Z,15.80
2023-05-08T23:09:15.288Z,12.60
2023-05-08T23:14:15.236Z,16.30
2023-05-08T23:19:15.179Z,15.60
2023-05-08T23:24:15.169Z,11.90
2023-05-08T23:29:15.117Z,15.70
2023-05-08T23:34:14.973Z,14.80
2023-05-08T23:39:14.957Z,13.80
2023-05-08T23:44:14.959Z,14.50
2023-05-08T23:49:14.834Z,13.40
2023-05-08T23:54:14.869Z,18.50
2023-05-08T23:59:14.734Z,13.70
